sensor_id;sensor_type;location;lat;lon;timestamp;P1;durP1;ratioP1;P2;durP2;ratioP2
20954;SDS011;10636;19.390;-99.256;2022-08-19T00:01:55;5.85;;;5.22;;
20954;SDS011;10636;19.390;-99.256;2022-08-19T00:04:26;5.43;;;4.93;;
20954;SDS011;10636;19.390;-99.256;2022-08-19T00:06:57;5.15;;;4.75;;
20954;SDS011;10636;19.390;-99.256;2022-08-19T00:09:26;5.13;;;4.72;;
20954;SDS011;10636;19.390;-99.256;2022-08-19T00:11:56;5.38;;;4.88;;
20954;SDS011;10636;19.390;-99.256;2022-08-19T00:14:25;6.28;;;5.22;;
20954;SDS011;10636;19.390;-99.256;2022-08-19T00:16:55;6.10;;;4.70;;
20954;SDS011;10636;19.390;-99.256;2022-08-19T00:19:25;5.65;;;4.25;;
20954;SDS011;10636;19.390;-99.256;2022-08-19T00:21:54;5.65;;;4.30;;
20954;SDS011;10636;19.390;-99.256;2022-08-19T00:24:22;5.30;;;4.50;;
20954;SDS011;10636;19.390;-99.256;2022-08-19T00:26:51;5.10;;;4.35;;
20954;SDS011;10636;19.390;-99.256;2022-08-19T00:29:22;5.28;;;4.78;;
20954;SDS011;10636;19.390;-99.256;2022-08-19T00:31:51;5.18;;;4.68;;
20954;SDS011;10636;19.390;-99.256;2022-08-19T00:34:23;6.15;;;5.65;;
20954;SDS011;10636;19.390;-99.256;2022-08-19T00:36:54;6.68;;;6.07;;
20954;SDS011;10636;19.390;-99.256;2022-08-19T00:39:23;6.40;;;5.80;;
20954;SDS011;10636;19.390;-99.256;2022-08-19T00:41:54;6.68;;;6.07;;
20954;SDS011;10636;19.390;-99.256;2022-08-19T00:44:24;6.00;;;5.50;;
20954;SDS011;10636;19.390;-99.256;2022-08-19T00:46:54;5.95;;;5.35;;
20954;SDS011;10636;19.390;-99.256;2022-08-19T00:49:27;5.55;;;5.05;;
20954;SDS011;10636;19.390;-99.256;2022-08-19T00:51:59;5.90;;;4.63;;
20954;SDS011;10636;19.390;-99.256;2022-08-19T00:54:30;5.28;;;4.82;;
20954;SDS011;10636;19.390;-99.256;2022-08-19T00:57:07;4.95;;;4.47;;
20954;SDS011;10636;19.390;-99.256;2022-08-19T00:59:38;4.30;;;3.92;;
20954;SDS011;10636;19.390;-99.256;2022-08-19T01:02:09;4.35;;;3.72;;
20954;SDS011;10636;19.390;-99.256;2022-08-19T01:04:39;4.03;;;3.72;;
20954;SDS011;10636;19.390;-99.256;2022-08-19T01:07:07;4.30;;;3.90;;
20954;SDS011;10636;19.390;-99.256;2022-08-19T01:09:36;3.58;;;3.28;;
20954;SDS011;10636;19.390;-99.256;2022-08-19T01:12:04;3.50;;;3.20;;
20954;SDS011;10636;19.390;-99.256;2022-08-19T01:14:34;3.40;;;3.10;;
20954;SDS011;10636;19.390;-99.256;2022-08-19T01:17:03;3.63;;;3.10;;
20954;SDS011;10636;19.390;-99.256;2022-08-19T01:19:33;3.20;;;2.90;;
20954;SDS011;10636;19.390;-99.256;2022-08-19T01:22:08;3.08;;;2.88;;
20954;SDS011;10636;19.390;-99.256;2022-08-19T01:24:41;5.05;;;4.65;;
20954;SDS011;10636;19.390;-99.256;2022-08-19T01:27:10;5.57;;;5.07;;
20954;SDS011;10636;19.390;-99.256;2022-08-19T01:29:39;6.00;;;5.45;;
20954;SDS011;10636;19.390;-99.256;2022-08-19T01:32:09;9.70;;;8.70;;
20954;SDS011;10636;19.390;-99.256;2022-08-19T01:34:40;9.38;;;8.48;;
20954;SDS011;10636;19.390;-99.256;2022-08-19T01:37:12;8.80;;;6.63;;
20954;SDS011;10636;19.390;-99.256;2022-08-19T01:39:43;7.40;;;6.70;;
20954;SDS011;10636;19.390;-99.256;2022-08-19T01:42:12;7.15;;;5.30;;
20954;SDS011;10636;19.390;-99.256;2022-08-19T01:44:40;8.23;;;5.07;;
20954;SDS011;10636;19.390;-99.256;2022-08-19T01:47:09;5.68;;;4.50;;
20954;SDS011;10636;19.390;-99.256;2022-08-19T01:49:37;4.20;;;3.80;;
20954;SDS011;10636;19.390;-99.256;2022-08-19T01:52:06;5.78;;;4.15;;
20954;SDS011;10636;19.390;-99.256;2022-08-19T01:54:34;4.68;;;3.75;;
20954;SDS011;10636;19.390;-99.256;2022-08-19T01:57:05;5.30;;;3.80;;
20954;SDS011;10636;19.390;-99.256;2022-08-19T01:59:37;3.97;;;3.42;;
20954;SDS011;10636;19.390;-99.256;2022-08-19T02:02:06;4.00;;;3.53;;
20954;SDS011;10636;19.390;-99.256;2022-08-19T02:04:35;4.53;;;3.55;;
20954;SDS011;10636;19.390;-99.256;2022-08-19T02:07:04;4.20;;;3.67;;
20954;SDS011;10636;19.390;-99.256;2022-08-19T02:09:33;12.10;;;11.00;;
20954;SDS011;10636;19.390;-99.256;2022-08-19T02:12:04;9.02;;;8.23;;
20954;SDS011;10636;19.390;-99.256;2022-08-19T02:14:35;8.27;;;7.32;;
20954;SDS011;10636;19.390;-99.256;2022-08-19T02:17:03;8.40;;;7.45;;
20954;SDS011;10636;19.390;-99.256;2022-08-19T02:19:32;8.27;;;7.47;;
20954;SDS011;10636;19.390;-99.256;2022-08-19T02:22:00;8.02;;;7.07;;
20954;SDS011;10636;19.390;-99.256;2022-08-19T02:24:29;7.10;;;6.50;;
20954;SDS011;10636;19.390;-99.256;2022-08-19T02:26:57;6.80;;;6.20;;
20954;SDS011;10636;19.390;-99.256;2022-08-19T02:29:27;6.82;;;6.22;;
20954;SDS011;10636;19.390;-99.256;2022-08-19T02:31:56;6.60;;;6.00;;
20954;SDS011;10636;19.390;-99.256;2022-08-19T02:34:24;6.32;;;5.63;;
20954;SDS011;10636;19.390;-99.256;2022-08-19T02:36:52;6.47;;;5.80;;
20954;SDS011;10636;19.390;-99.256;2022-08-19T02:39:21;6.43;;;5.63;;
20954;SDS011;10636;19.390;-99.256;2022-08-19T02:41:48;6.10;;;5.60;;
20954;SDS011;10636;19.390;-99.256;2022-08-19T02:44:17;6.35;;;5.75;;
20954;SDS011;10636;19.390;-99.256;2022-08-19T02:46:47;6.10;;;5.43;;
20954;SDS011;10636;19.390;-99.256;2022-08-19T02:49:16;6.50;;;5.50;;
20954;SDS011;10636;19.390;-99.256;2022-08-19T02:51:45;8.13;;;5.63;;
20954;SDS011;10636;19.390;-99.256;2022-08-19T02:54:14;6.28;;;5.47;;
20954;SDS011;10636;19.390;-99.256;2022-08-19T02:56:43;5.80;;;5.25;;
20954;SDS011;10636;19.390;-99.256;2022-08-19T02:59:11;5.90;;;5.32;;
20954;SDS011;10636;19.390;-99.256;2022-08-19T03:01:40;5.63;;;5.10;;
20954;SDS011;10636;19.390;-99.256;2022-08-19T03:04:12;5.60;;;5.03;;
20954;SDS011;10636;19.390;-99.256;2022-08-19T03:06:43;5.55;;;4.80;;
20954;SDS011;10636;19.390;-99.256;2022-08-19T03:09:13;5.70;;;4.82;;
20954;SDS011;10636;19.390;-99.256;2022-08-19T03:11:42;5.18;;;4.25;;
20954;SDS011;10636;19.390;-99.256;2022-08-19T03:14:11;5.15;;;4.65;;
20954;SDS011;10636;19.390;-99.256;2022-08-19T03:16:42;4.50;;;4.10;;
20954;SDS011;10636;19.390;-99.256;2022-08-19T03:19:13;4.63;;;4.15;;
20954;SDS011;10636;19.390;-99.256;2022-08-19T03:21:43;5.63;;;3.97;;
20954;SDS011;10636;19.390;-99.256;2022-08-19T03:24:13;4.57;;;3.95;;
20954;SDS011;10636;19.390;-99.256;2022-08-19T03:26:43;4.43;;;4.03;;
20954;SDS011;10636;19.390;-99.256;2022-08-19T03:29:13;4.30;;;3.90;;
20954;SDS011;10636;19.390;-99.256;2022-08-19T03:31:42;4.25;;;3.88;;
20954;SDS011;10636;19.390;-99.256;2022-08-19T03:34:10;4.63;;;3.70;;
20954;SDS011;10636;19.390;-99.256;2022-08-19T03:36:42;3.72;;;3.42;;
20954;SDS011;10636;19.390;-99.256;2022-08-19T03:39:11;3.70;;;3.40;;
20954;SDS011;10636;19.390;-99.256;2022-08-19T03:41:41;4.68;;;3.72;;
20954;SDS011;10636;19.390;-99.256;2022-08-19T03:44:11;4.38;;;3.50;;
20954;SDS011;10636;19.390;-99.256;2022-08-19T03:46:40;4.15;;;3.20;;
20954;SDS011;10636;19.390;-99.256;2022-08-19T03:49:09;3.80;;;3.13;;
20954;SDS011;10636;19.390;-99.256;2022-08-19T03:51:39;3.55;;;3.25;;
20954;SDS011;10636;19.390;-99.256;2022-08-19T03:54:08;5.38;;;3.08;;
20954;SDS011;10636;19.390;-99.256;2022-08-19T03:56:39;3.28;;;3.08;;
20954;SDS011;10636;19.390;-99.256;2022-08-19T03:59:10;3.72;;;3.08;;
20954;SDS011;10636;19.390;-99.256;2022-08-19T04:01:40;3.60;;;3.10;;
20954;SDS011;10636;19.390;-99.256;2022-08-19T04:04:08;3.40;;;3.08;;
20954;SDS011;10636;19.390;-99.256;2022-08-19T04:06:39;3.60;;;3.28;;
20954;SDS011;10636;19.390;-99.256;2022-08-19T04:09:09;3.38;;;2.83;;
20954;SDS011;10636;19.390;-99.256;2022-08-19T04:11:39;4.35;;;3.10;;
20954;SDS011;10636;19.390;-99.256;2022-08-19T04:14:10;3.50;;;2.92;;
20954;SDS011;10636;19.390;-99.256;2022-08-19T04:16:39;4.13;;;3.50;;
20954;SDS011;10636;19.390;-99.256;2022-08-19T04:19:09;3.45;;;2.78;;
20954;SDS011;10636;19.390;-99.256;2022-08-19T04:21:40;3.47;;;3.13;;
20954;SDS011;10636;19.390;-99.256;2022-08-19T04:24:13;3.35;;;3.05;;
20954;SDS011;10636;19.390;-99.256;2022-08-19T04:26:41;3.80;;;3.28;;
20954;SDS011;10636;19.390;-99.256;2022-08-19T04:29:11;3.47;;;3.10;;
20954;SDS011;10636;19.390;-99.256;2022-08-19T04:31:42;3.83;;;2.97;;
20954;SDS011;10636;19.390;-99.256;2022-08-19T04:34:13;3.40;;;3.10;;
20954;SDS011;10636;19.390;-99.256;2022-08-19T04:36:51;3.30;;;3.00;;
20954;SDS011;10636;19.390;-99.256;2022-08-19T04:39:24;3.40;;;3.10;;
20954;SDS011;10636;19.390;-99.256;2022-08-19T04:42:14;3.33;;;3.03;;
20954;SDS011;10636;19.390;-99.256;2022-08-19T04:44:59;3.95;;;3.22;;
20954;SDS011;10636;19.390;-99.256;2022-08-19T04:47:28;3.38;;;3.00;;
20954;SDS011;10636;19.390;-99.256;2022-08-19T04:49:58;3.35;;;3.00;;
20954;SDS011;10636;19.390;-99.256;2022-08-19T04:52:28;3.50;;;3.20;;
20954;SDS011;10636;19.390;-99.256;2022-08-19T04:54:57;3.40;;;3.10;;
20954;SDS011;10636;19.390;-99.256;2022-08-19T04:57:26;3.28;;;2.97;;
20954;SDS011;10636;19.390;-99.256;2022-08-19T04:59:54;3.50;;;3.20;;
20954;SDS011;10636;19.390;-99.256;2022-08-19T05:02:24;3.60;;;3.20;;
20954;SDS011;10636;19.390;-99.256;2022-08-19T05:04:56;3.35;;;3.05;;
20954;SDS011;10636;19.390;-99.256;2022-08-19T05:07:28;3.47;;;3.17;;
20954;SDS011;10636;19.390;-99.256;2022-08-19T05:09:56;3.30;;;3.00;;
20954;SDS011;10636;19.390;-99.256;2022-08-19T05:12:25;3.22;;;2.85;;
20954;SDS011;10636;19.390;-99.256;2022-08-19T05:14:54;3.00;;;2.80;;
20954;SDS011;10636;19.390;-99.256;2022-08-19T05:17:23;3.08;;;2.88;;
20954;SDS011;10636;19.390;-99.256;2022-08-19T05:19:51;3.95;;;3.00;;
20954;SDS011;10636;19.390;-99.256;2022-08-19T05:22:38;3.58;;;3.15;;
20954;SDS011;10636;19.390;-99.256;2022-08-19T05:25:09;3.00;;;2.80;;
20954;SDS011;10636;19.390;-99.256;2022-08-19T05:27:39;3.00;;;2.80;;
20954;SDS011;10636;19.390;-99.256;2022-08-19T05:30:09;3.10;;;2.90;;
20954;SDS011;10636;19.390;-99.256;2022-08-19T05:32:38;3.13;;;2.90;;
20954;SDS011;10636;19.390;-99.256;2022-08-19T05:35:08;3.40;;;3.10;;
20954;SDS011;10636;19.390;-99.256;2022-08-19T05:37:38;3.08;;;2.88;;
20954;SDS011;10636;19.390;-99.256;2022-08-19T05:40:08;3.50;;;2.90;;
20954;SDS011;10636;19.390;-99.256;2022-08-19T05:42:37;3.15;;;2.85;;
20954;SDS011;10636;19.390;-99.256;2022-08-19T05:45:06;3.22;;;2.92;;
20954;SDS011;10636;19.390;-99.256;2022-08-19T05:47:35;3.08;;;2.78;;
20954;SDS011;10636;19.390;-99.256;2022-08-19T05:50:04;2.80;;;2.60;;
20954;SDS011;10636;19.390;-99.256;2022-08-19T05:52:32;3.00;;;2.70;;
20954;SDS011;10636;19.390;-99.256;2022-08-19T05:55:05;3.28;;;2.97;;
20954;SDS011;10636;19.390;-99.256;2022-08-19T05:57:34;3.10;;;2.90;;
20954;SDS011;10636;19.390;-99.256;2022-08-19T06:00:04;2.90;;;2.70;;
20954;SDS011;10636;19.390;-99.256;2022-08-19T06:02:36;3.15;;;2.85;;
20954;SDS011;10636;19.390;-99.256;2022-08-19T06:05:04;2.92;;;2.60;;
20954;SDS011;10636;19.390;-99.256;2022-08-19T06:07:34;3.05;;;2.80;;
20954;SDS011;10636;19.390;-99.256;2022-08-19T06:10:03;2.88;;;2.67;;
20954;SDS011;10636;19.390;-99.256;2022-08-19T06:12:35;2.85;;;2.65;;
20954;SDS011;10636;19.390;-99.256;2022-08-19T06:15:04;2.90;;;2.70;;
20954;SDS011;10636;19.390;-99.256;2022-08-19T06:17:34;3.45;;;3.13;;
20954;SDS011;10636;19.390;-99.256;2022-08-19T06:20:03;2.75;;;2.55;;
20954;SDS011;10636;19.390;-99.256;2022-08-19T06:22:37;3.00;;;2.67;;
20954;SDS011;10636;19.390;-99.256;2022-08-19T06:25:08;3.00;;;2.80;;
20954;SDS011;10636;19.390;-99.256;2022-08-19T06:27:37;3.22;;;2.92;;
20954;SDS011;10636;19.390;-99.256;2022-08-19T06:30:06;2.80;;;2.60;;
20954;SDS011;10636;19.390;-99.256;2022-08-19T06:32:36;2.80;;;2.60;;
20954;SDS011;10636;19.390;-99.256;2022-08-19T06:35:06;3.03;;;2.78;;
20954;SDS011;10636;19.390;-99.256;2022-08-19T06:37:36;3.80;;;2.88;;
20954;SDS011;10636;19.390;-99.256;2022-08-19T06:40:05;3.17;;;2.90;;
20954;SDS011;10636;19.390;-99.256;2022-08-19T06:42:36;3.03;;;2.83;;
20954;SDS011;10636;19.390;-99.256;2022-08-19T06:45:05;3.22;;;2.92;;
20954;SDS011;10636;19.390;-99.256;2022-08-19T06:47:35;3.03;;;2.72;;
20954;SDS011;10636;19.390;-99.256;2022-08-19T06:50:03;2.83;;;2.63;;
20954;SDS011;10636;19.390;-99.256;2022-08-19T06:52:33;3.20;;;2.90;;
20954;SDS011;10636;19.390;-99.256;2022-08-19T06:55:03;3.13;;;2.88;;
20954;SDS011;10636;19.390;-99.256;2022-08-19T06:57:33;2.80;;;2.60;;
20954;SDS011;10636;19.390;-99.256;2022-08-19T07:00:03;3.20;;;2.90;;
20954;SDS011;10636;19.390;-99.256;2022-08-19T07:02:35;3.10;;;2.63;;
20954;SDS011;10636;19.390;-99.256;2022-08-19T07:05:04;2.97;;;2.78;;
20954;SDS011;10636;19.390;-99.256;2022-08-19T07:07:33;2.80;;;2.60;;
20954;SDS011;10636;19.390;-99.256;2022-08-19T07:10:02;2.65;;;2.45;;
20954;SDS011;10636;19.390;-99.256;2022-08-19T07:12:33;2.85;;;2.65;;
20954;SDS011;10636;19.390;-99.256;2022-08-19T07:15:01;3.30;;;2.67;;
20954;SDS011;10636;19.390;-99.256;2022-08-19T07:17:31;3.42;;;2.90;;
20954;SDS011;10636;19.390;-99.256;2022-08-19T07:20:01;2.75;;;2.55;;
20954;SDS011;10636;19.390;-99.256;2022-08-19T07:22:29;2.55;;;2.35;;
20954;SDS011;10636;19.390;-99.256;2022-08-19T07:24:58;2.55;;;2.35;;
20954;SDS011;10636;19.390;-99.256;2022-08-19T07:27:28;3.30;;;2.60;;
20954;SDS011;10636;19.390;-99.256;2022-08-19T07:29:58;2.63;;;2.42;;
20954;SDS011;10636;19.390;-99.256;2022-08-19T07:32:27;2.88;;;2.65;;
20954;SDS011;10636;19.390;-99.256;2022-08-19T07:34:56;3.25;;;2.80;;
20954;SDS011;10636;19.390;-99.256;2022-08-19T07:37:25;2.78;;;2.58;;
20954;SDS011;10636;19.390;-99.256;2022-08-19T07:39:54;3.03;;;2.78;;
20954;SDS011;10636;19.390;-99.256;2022-08-19T07:42:22;2.90;;;2.70;;
20954;SDS011;10636;19.390;-99.256;2022-08-19T07:44:51;2.90;;;2.60;;
20954;SDS011;10636;19.390;-99.256;2022-08-19T07:47:21;3.25;;;2.60;;
20954;SDS011;10636;19.390;-99.256;2022-08-19T07:49:49;2.80;;;2.60;;
20954;SDS011;10636;19.390;-99.256;2022-08-19T07:52:18;3.00;;;2.70;;
20954;SDS011;10636;19.390;-99.256;2022-08-19T07:54:46;2.80;;;2.60;;
20954;SDS011;10636;19.390;-99.256;2022-08-19T07:57:15;2.70;;;2.50;;
20954;SDS011;10636;19.390;-99.256;2022-08-19T07:59:44;2.72;;;2.53;;
20954;SDS011;10636;19.390;-99.256;2022-08-19T08:02:12;2.97;;;2.78;;
20954;SDS011;10636;19.390;-99.256;2022-08-19T08:04:43;2.83;;;2.55;;
20954;SDS011;10636;19.390;-99.256;2022-08-19T08:07:28;2.88;;;2.67;;
20954;SDS011;10636;19.390;-99.256;2022-08-19T08:10:09;2.88;;;2.60;;
20954;SDS011;10636;19.390;-99.256;2022-08-19T08:12:39;2.85;;;2.60;;
20954;SDS011;10636;19.390;-99.256;2022-08-19T08:15:08;2.80;;;2.60;;
20954;SDS011;10636;19.390;-99.256;2022-08-19T08:17:41;2.72;;;2.50;;
20954;SDS011;10636;19.390;-99.256;2022-08-19T08:20:13;2.85;;;2.60;;
20954;SDS011;10636;19.390;-99.256;2022-08-19T08:22:45;2.63;;;2.42;;
20954;SDS011;10636;19.390;-99.256;2022-08-19T08:25:30;2.50;;;2.30;;
20954;SDS011;10636;19.390;-99.256;2022-08-19T08:27:59;2.50;;;2.30;;
20954;SDS011;10636;19.390;-99.256;2022-08-19T08:30:27;2.60;;;2.40;;
20954;SDS011;10636;19.390;-99.256;2022-08-19T08:32:58;3.08;;;2.78;;
20954;SDS011;10636;19.390;-99.256;2022-08-19T08:35:28;2.88;;;2.60;;
20954;SDS011;10636;19.390;-99.256;2022-08-19T08:37:57;3.03;;;2.63;;
20954;SDS011;10636;19.390;-99.256;2022-08-19T08:40:27;2.70;;;2.50;;
20954;SDS011;10636;19.390;-99.256;2022-08-19T08:43:03;2.38;;;2.17;;
20954;SDS011;10636;19.390;-99.256;2022-08-19T08:45:38;2.50;;;2.30;;
20954;SDS011;10636;19.390;-99.256;2022-08-19T08:48:17;2.88;;;2.42;;
20954;SDS011;10636;19.390;-99.256;2022-08-19T08:50:50;2.85;;;2.65;;
20954;SDS011;10636;19.390;-99.256;2022-08-19T08:53:22;2.50;;;2.30;;
20954;SDS011;10636;19.390;-99.256;2022-08-19T08:55:51;2.85;;;2.65;;
20954;SDS011;10636;19.390;-99.256;2022-08-19T08:58:21;2.42;;;2.22;;
20954;SDS011;10636;19.390;-99.256;2022-08-19T09:00:56;2.53;;;2.33;;
20954;SDS011;10636;19.390;-99.256;2022-08-19T09:03:25;2.30;;;2.20;;
20954;SDS011;10636;19.390;-99.256;2022-08-19T09:05:59;2.35;;;2.25;;
20954;SDS011;10636;19.390;-99.256;2022-08-19T09:08:33;2.50;;;2.30;;
20954;SDS011;10636;19.390;-99.256;2022-08-19T09:11:10;2.70;;;2.50;;
20954;SDS011;10636;19.390;-99.256;2022-08-19T09:13:44;2.50;;;2.30;;
20954;SDS011;10636;19.390;-99.256;2022-08-19T09:16:25;2.85;;;2.38;;
20954;SDS011;10636;19.390;-99.256;2022-08-19T09:18:56;2.50;;;2.30;;
20954;SDS011;10636;19.390;-99.256;2022-08-19T09:21:31;2.20;;;2.10;;
20954;SDS011;10636;19.390;-99.256;2022-08-19T09:24:00;2.60;;;2.40;;
20954;SDS011;10636;19.390;-99.256;2022-08-19T09:26:30;2.58;;;2.38;;
20954;SDS011;10636;19.390;-99.256;2022-08-19T09:28:59;2.38;;;2.17;;
20954;SDS011;10636;19.390;-99.256;2022-08-19T09:31:30;2.78;;;2.58;;
20954;SDS011;10636;19.390;-99.256;2022-08-19T09:33:59;2.60;;;2.40;;
20954;SDS011;10636;19.390;-99.256;2022-08-19T09:36:31;2.53;;;2.33;;
20954;SDS011;10636;19.390;-99.256;2022-08-19T09:39:02;2.70;;;2.50;;
20954;SDS011;10636;19.390;-99.256;2022-08-19T09:41:31;2.67;;;2.47;;
20954;SDS011;10636;19.390;-99.256;2022-08-19T09:43:59;2.83;;;2.05;;
20954;SDS011;10636;19.390;-99.256;2022-08-19T09:46:28;2.63;;;2.42;;
20954;SDS011;10636;19.390;-99.256;2022-08-19T09:48:58;2.33;;;2.13;;
20954;SDS011;10636;19.390;-99.256;2022-08-19T09:51:27;2.50;;;2.30;;
20954;SDS011;10636;19.390;-99.256;2022-08-19T09:54:00;2.58;;;2.38;;
20954;SDS011;10636;19.390;-99.256;2022-08-19T09:56:30;2.67;;;2.47;;
20954;SDS011;10636;19.390;-99.256;2022-08-19T09:58:59;2.72;;;2.50;;
20954;SDS011;10636;19.390;-99.256;2022-08-19T10:01:28;2.40;;;2.20;;
20954;SDS011;10636;19.390;-99.256;2022-08-19T10:03:58;3.10;;;2.80;;
20954;SDS011;10636;19.390;-99.256;2022-08-19T10:06:28;2.40;;;2.20;;
20954;SDS011;10636;19.390;-99.256;2022-08-19T10:08:58;2.70;;;2.50;;
20954;SDS011;10636;19.390;-99.256;2022-08-19T10:11:29;2.63;;;2.42;;
20954;SDS011;10636;19.390;-99.256;2022-08-19T10:13:58;2.40;;;2.20;;
20954;SDS011;10636;19.390;-99.256;2022-08-19T10:16:26;2.83;;;2.60;;
20954;SDS011;10636;19.390;-99.256;2022-08-19T10:18:55;2.58;;;2.35;;
20954;SDS011;10636;19.390;-99.256;2022-08-19T10:21:24;2.70;;;2.50;;
20954;SDS011;10636;19.390;-99.256;2022-08-19T10:23:55;2.60;;;2.40;;
20954;SDS011;10636;19.390;-99.256;2022-08-19T10:26:28;2.78;;;2.38;;
20954;SDS011;10636;19.390;-99.256;2022-08-19T10:28:58;2.80;;;2.60;;
20954;SDS011;10636;19.390;-99.256;2022-08-19T10:31:27;2.50;;;2.30;;
20954;SDS011;10636;19.390;-99.256;2022-08-19T10:33:57;2.80;;;2.60;;
20954;SDS011;10636;19.390;-99.256;2022-08-19T10:36:26;2.85;;;2.50;;
20954;SDS011;10636;19.390;-99.256;2022-08-19T10:38:57;2.67;;;2.47;;
20954;SDS011;10636;19.390;-99.256;2022-08-19T10:41:30;2.70;;;2.47;;
20954;SDS011;10636;19.390;-99.256;2022-08-19T10:44:03;3.28;;;2.28;;
20954;SDS011;10636;19.390;-99.256;2022-08-19T10:46:33;2.53;;;2.33;;
20954;SDS011;10636;19.390;-99.256;2022-08-19T10:49:06;2.30;;;2.10;;
20954;SDS011;10636;19.390;-99.256;2022-08-19T10:51:37;2.55;;;2.35;;
20954;SDS011;10636;19.390;-99.256;2022-08-19T10:54:23;2.55;;;2.35;;
20954;SDS011;10636;19.390;-99.256;2022-08-19T10:57:13;2.75;;;2.55;;
20954;SDS011;10636;19.390;-99.256;2022-08-19T10:59:41;2.63;;;2.40;;
20954;SDS011;10636;19.390;-99.256;2022-08-19T11:02:10;2.72;;;2.53;;
20954;SDS011;10636;19.390;-99.256;2022-08-19T11:04:39;2.70;;;2.50;;
20954;SDS011;10636;19.390;-99.256;2022-08-19T11:07:08;2.80;;;2.60;;
20954;SDS011;10636;19.390;-99.256;2022-08-19T11:09:37;2.75;;;2.30;;
20954;SDS011;10636;19.390;-99.256;2022-08-19T11:12:07;2.60;;;2.40;;
20954;SDS011;10636;19.390;-99.256;2022-08-19T11:14:39;3.03;;;2.53;;
20954;SDS011;10636;19.390;-99.256;2022-08-19T11:17:08;2.67;;;2.47;;
20954;SDS011;10636;19.390;-99.256;2022-08-19T11:19:39;2.67;;;2.47;;
20954;SDS011;10636;19.390;-99.256;2022-08-19T11:22:07;2.67;;;2.47;;
20954;SDS011;10636;19.390;-99.256;2022-08-19T11:24:36;2.60;;;2.40;;
20954;SDS011;10636;19.390;-99.256;2022-08-19T11:27:05;2.90;;;2.55;;
20954;SDS011;10636;19.390;-99.256;2022-08-19T11:29:37;2.60;;;2.40;;
20954;SDS011;10636;19.390;-99.256;2022-08-19T11:32:08;2.88;;;2.35;;
20954;SDS011;10636;19.390;-99.256;2022-08-19T11:34:38;2.63;;;2.42;;
20954;SDS011;10636;19.390;-99.256;2022-08-19T11:37:07;2.85;;;2.65;;
20954;SDS011;10636;19.390;-99.256;2022-08-19T11:39:36;2.55;;;2.35;;
20954;SDS011;10636;19.390;-99.256;2022-08-19T11:42:05;2.88;;;2.33;;
20954;SDS011;10636;19.390;-99.256;2022-08-19T11:44:49;2.70;;;2.50;;
20954;SDS011;10636;19.390;-99.256;2022-08-19T11:47:17;2.88;;;2.67;;
20954;SDS011;10636;19.390;-99.256;2022-08-19T11:49:46;2.83;;;2.47;;
20954;SDS011;10636;19.390;-99.256;2022-08-19T11:52:15;2.88;;;2.67;;
20954;SDS011;10636;19.390;-99.256;2022-08-19T11:54:43;3.00;;;2.80;;
20954;SDS011;10636;19.390;-99.256;2022-08-19T11:57:12;3.25;;;2.95;;
20954;SDS011;10636;19.390;-99.256;2022-08-19T11:59:42;2.95;;;2.65;;
20954;SDS011;10636;19.390;-99.256;2022-08-19T12:02:16;3.03;;;2.78;;
20954;SDS011;10636;19.390;-99.256;2022-08-19T12:04:45;3.15;;;2.95;;
20954;SDS011;10636;19.390;-99.256;2022-08-19T12:07:13;3.28;;;3.08;;
20954;SDS011;10636;19.390;-99.256;2022-08-19T12:09:42;3.22;;;3.00;;
20954;SDS011;10636;19.390;-99.256;2022-08-19T12:12:10;3.47;;;3.00;;
20954;SDS011;10636;19.390;-99.256;2022-08-19T12:14:38;3.47;;;3.13;;
20954;SDS011;10636;19.390;-99.256;2022-08-19T12:17:07;3.03;;;2.83;;
20954;SDS011;10636;19.390;-99.256;2022-08-19T12:19:38;3.65;;;3.20;;
20954;SDS011;10636;19.390;-99.256;2022-08-19T12:22:06;5.93;;;3.38;;
20954;SDS011;10636;19.390;-99.256;2022-08-19T12:24:35;3.40;;;3.10;;
20954;SDS011;10636;19.390;-99.256;2022-08-19T12:27:03;3.33;;;2.90;;
20954;SDS011;10636;19.390;-99.256;2022-08-19T12:29:32;3.75;;;3.40;;
20954;SDS011;10636;19.390;-99.256;2022-08-19T12:32:00;4.50;;;3.20;;
20954;SDS011;10636;19.390;-99.256;2022-08-19T12:34:29;4.80;;;3.15;;
20954;SDS011;10636;19.390;-99.256;2022-08-19T12:37:01;4.10;;;3.60;;
20954;SDS011;10636;19.390;-99.256;2022-08-19T12:39:33;4.03;;;3.10;;
20954;SDS011;10636;19.390;-99.256;2022-08-19T12:42:02;3.90;;;3.60;;
20954;SDS011;10636;19.390;-99.256;2022-08-19T12:44:31;4.32;;;3.60;;
20954;SDS011;10636;19.390;-99.256;2022-08-19T12:46:59;3.72;;;3.40;;
20954;SDS011;10636;19.390;-99.256;2022-08-19T12:49:28;4.47;;;3.50;;
20954;SDS011;10636;19.390;-99.256;2022-08-19T12:51:57;4.78;;;3.90;;
20954;SDS011;10636;19.390;-99.256;2022-08-19T12:54:27;4.38;;;3.70;;
20954;SDS011;10636;19.390;-99.256;2022-08-19T12:56:57;5.47;;;3.90;;
20954;SDS011;10636;19.390;-99.256;2022-08-19T12:59:26;4.60;;;3.50;;
20954;SDS011;10636;19.390;-99.256;2022-08-19T13:01:54;4.45;;;3.92;;
20954;SDS011;10636;19.390;-99.256;2022-08-19T13:04:22;4.93;;;3.70;;
20954;SDS011;10636;19.390;-99.256;2022-08-19T13:06:51;4.80;;;3.53;;
20954;SDS011;10636;19.390;-99.256;2022-08-19T13:09:19;4.32;;;3.80;;
20954;SDS011;10636;19.390;-99.256;2022-08-19T13:11:49;5.03;;;4.07;;
20954;SDS011;10636;19.390;-99.256;2022-08-19T13:14:18;4.07;;;3.72;;
20954;SDS011;10636;19.390;-99.256;2022-08-19T13:16:46;4.50;;;4.10;;
20954;SDS011;10636;19.390;-99.256;2022-08-19T13:19:14;4.18;;;3.78;;
20954;SDS011;10636;19.390;-99.256;2022-08-19T13:21:48;4.53;;;3.85;;
20954;SDS011;10636;19.390;-99.256;2022-08-19T13:24:17;3.78;;;3.47;;
20954;SDS011;10636;19.390;-99.256;2022-08-19T13:26:46;5.35;;;4.20;;
20954;SDS011;10636;19.390;-99.256;2022-08-19T13:29:16;4.32;;;3.92;;
20954;SDS011;10636;19.390;-99.256;2022-08-19T13:32:01;6.57;;;5.10;;
20954;SDS011;10636;19.390;-99.256;2022-08-19T13:34:46;7.38;;;6.57;;
20954;SDS011;10636;19.390;-99.256;2022-08-19T13:37:15;9.13;;;6.90;;
20954;SDS011;10636;19.390;-99.256;2022-08-19T13:40:04;8.63;;;7.20;;
20954;SDS011;10636;19.390;-99.256;2022-08-19T13:42:33;7.00;;;6.30;;
20954;SDS011;10636;19.390;-99.256;2022-08-19T13:45:03;7.78;;;6.03;;
20954;SDS011;10636;19.390;-99.256;2022-08-19T13:47:33;7.15;;;6.45;;
20954;SDS011;10636;19.390;-99.256;2022-08-19T13:50:08;9.05;;;7.15;;
20954;SDS011;10636;19.390;-99.256;2022-08-19T13:52:37;9.35;;;7.30;;
20954;SDS011;10636;19.390;-99.256;2022-08-19T13:55:07;8.65;;;7.85;;
20954;SDS011;10636;19.390;-99.256;2022-08-19T13:57:36;9.20;;;8.25;;
20954;SDS011;10636;19.390;-99.256;2022-08-19T14:00:08;9.13;;;7.90;;
20954;SDS011;10636;19.390;-99.256;2022-08-19T14:02:39;11.00;;;8.07;;
20954;SDS011;10636;19.390;-99.256;2022-08-19T14:05:09;8.93;;;8.00;;
20954;SDS011;10636;19.390;-99.256;2022-08-19T14:07:39;9.27;;;8.32;;
20954;SDS011;10636;19.390;-99.256;2022-08-19T14:10:08;9.05;;;8.13;;
20954;SDS011;10636;19.390;-99.256;2022-08-19T14:12:39;8.75;;;7.85;;
20954;SDS011;10636;19.390;-99.256;2022-08-19T14:15:10;9.57;;;7.82;;
20954;SDS011;10636;19.390;-99.256;2022-08-19T14:17:39;8.75;;;7.85;;
20954;SDS011;10636;19.390;-99.256;2022-08-19T14:20:08;8.98;;;8.07;;
20954;SDS011;10636;19.390;-99.256;2022-08-19T14:22:38;10.70;;;8.80;;
20954;SDS011;10636;19.390;-99.256;2022-08-19T14:25:09;10.55;;;9.40;;
20954;SDS011;10636;19.390;-99.256;2022-08-19T14:27:40;10.50;;;9.35;;
20954;SDS011;10636;19.390;-99.256;2022-08-19T14:30:13;11.10;;;9.95;;
20954;SDS011;10636;19.390;-99.256;2022-08-19T14:32:42;11.15;;;10.02;;
20954;SDS011;10636;19.390;-99.256;2022-08-19T14:35:12;10.45;;;9.45;;
20954;SDS011;10636;19.390;-99.256;2022-08-19T14:37:42;11.23;;;9.68;;
20954;SDS011;10636;19.390;-99.256;2022-08-19T14:40:13;11.00;;;9.90;;